Time;durP1;ratioP1;P1;durP2;ratioP2;P2;SDS_P1;SDS_P2;PMS_P1;PMS_P2;Temp;Humidity;BMP_temperature;BMP_pressure;BME280_temperature;BME280_humidity;BME280_pressure;Samples;Min_cycle;Max_cycle;Signal;HPM_P1;HPM_P2
2022/11/29 00:01:24;;;;;;;38.45;21.80;;;3.10;99.90;;;;;;4971212;28;20015;-73
2022/11/29 00:03:50;;;;;;;33.83;21.60;;;3.10;99.90;;;;;;4971677;28;20031;-73
2022/11/29 00:06:19;;;;;;;29.58;17.48;;;3.20;99.90;;;;;;4955946;28;20049;-73
2022/11/29 00:08:45;;;;;;;32.60;18.30;;;3.20;99.90;;;;;;4969519;28;20086;-74
2022/11/29 00:12:10;;;;;;;28.70;16.13;;;3.20;99.90;;;;;;4971131;28;20027;-73
2022/11/29 00:14:00;;;;;;;27.13;14.85;;;3.30;99.90;;;;;;4971106;28;20034;-74
2022/11/29 00:16:25;;;;;;;27.48;16.20;;;3.40;99.90;;;;;;4971578;28;20097;-74
2022/11/29 00:18:51;;;;;;;25.55;15.55;;;3.50;99.90;;;;;;4971307;28;20474;-74
2022/11/29 00:21:17;;;;;;;29.92;15.73;;;3.50;99.90;;;;;;4969805;28;20054;-75
2022/11/29 00:23:43;;;;;;;27.08;16.13;;;3.60;99.90;;;;;;4970986;28;20027;-74
2022/11/29 00:26:09;;;;;;;24.30;14.85;;;3.60;99.90;;;;;;4970755;28;20209;-73
2022/11/29 00:28:36;;;;;;;23.63;14.80;;;3.60;99.90;;;;;;4970594;28;20038;-73
2022/11/29 00:31:21;;;;;;;25.73;15.63;;;3.60;99.90;;;;;;4964138;28;20047;-74
2022/11/29 00:33:48;;;;;;;24.23;14.77;;;3.60;99.90;;;;;;4962673;28;20051;-74
2022/11/29 00:36:15;;;;;;;25.80;15.85;;;3.60;99.90;;;;;;4971035;28;20409;-74
2022/11/29 00:38:41;;;;;;;27.35;16.33;;;3.60;99.90;;;;;;4967708;28;20031;-75
2022/11/29 00:41:07;;;;;;;26.83;15.63;;;3.60;99.90;;;;;;4969594;28;20015;-74
2022/11/29 00:43:34;;;;;;;25.58;14.07;;;3.60;99.90;;;;;;4966914;28;20031;-76
2022/11/29 00:46:00;;;;;;;27.25;15.23;;;3.60;99.90;;;;;;4970182;28;20031;-75
2022/11/29 00:48:25;;;;;;;25.98;16.27;;;3.60;99.90;;;;;;4974396;28;20027;-75
2022/11/29 00:50:51;;;;;;;29.95;17.58;;;3.50;99.90;;;;;;4974428;28;20547;-74
2022/11/29 00:53:17;;;;;;;29.42;15.85;;;3.40;99.90;;;;;;4970232;28;20027;-74
2022/11/29 00:55:46;;;;;;;24.55;14.57;;;3.40;99.90;;;;;;4968679;28;20046;-75
2022/11/29 00:58:12;;;;;;;25.90;14.40;;;3.30;99.90;;;;;;4974147;28;20377;-76
2022/11/29 01:00:38;;;;;;;23.25;14.38;;;3.30;99.90;;;;;;4968368;28;20038;-75
2022/11/29 01:03:03;;;;;;;24.35;14.85;;;3.10;99.90;;;;;;4970583;28;20019;-75
2022/11/29 01:05:31;;;;;;;24.58;13.68;;;3.10;99.90;;;;;;4960648;28;20035;-75
2022/11/29 01:07:56;;;;;;;26.45;14.43;;;3.10;99.90;;;;;;4974132;28;20134;-74
2022/11/29 01:10:22;;;;;;;26.00;15.68;;;3.10;99.90;;;;;;4973968;28;20106;-76
2022/11/29 01:12:48;;;;;;;26.73;14.48;;;3.00;99.90;;;;;;4974237;28;20481;-74
2022/11/29 01:15:14;;;;;;;27.30;16.73;;;3.00;99.90;;;;;;4972243;28;20361;-74
2022/11/29 01:17:40;;;;;;;26.13;15.10;;;3.00;99.90;;;;;;4973948;28;20031;-74
2022/11/29 01:20:08;;;;;;;28.52;16.10;;;2.90;99.90;;;;;;4972624;28;20901;-73
2022/11/29 01:22:36;;;;;;;25.83;15.50;;;2.90;99.90;;;;;;4973535;28;20034;-74
2022/11/29 01:25:02;;;;;;;27.08;16.45;;;2.90;99.90;;;;;;4973820;28;20058;-74
2022/11/29 01:27:28;;;;;;;21.60;13.02;;;3.00;99.90;;;;;;4973619;28;20092;-74
2022/11/29 01:29:54;;;;;;;27.98;15.50;;;3.00;99.90;;;;;;4973602;28;20047;-74
2022/11/29 01:32:20;;;;;;;26.23;15.02;;;3.00;99.90;;;;;;4973856;28;20030;-74
2022/11/29 01:34:46;;;;;;;26.25;16.95;;;3.00;99.90;;;;;;4973657;28;20023;-73
2022/11/29 01:37:12;;;;;;;26.20;15.60;;;3.10;99.90;;;;;;4968482;28;20038;-74
2022/11/29 01:39:38;;;;;;;35.28;20.90;;;3.00;99.90;;;;;;4964110;28;20113;-74
2022/11/29 01:42:04;;;;;;;28.95;19.92;;;3.10;99.90;;;;;;4960033;28;20034;-74
2022/11/29 01:44:30;;;;;;;24.10;14.75;;;3.10;99.90;;;;;;4970156;28;20685;-74
2022/11/29 01:46:56;;;;;;;26.13;15.90;;;3.10;99.90;;;;;;4973592;28;20058;-74
2022/11/29 01:49:36;;;;;;;21.08;12.50;;;3.10;99.90;;;;;;4973692;28;20034;-74
2022/11/29 01:52:15;;;;;;;25.27;14.55;;;3.10;99.90;;;;;;4971048;28;20033;-74
2022/11/29 01:54:45;;;;;;;24.63;15.07;;;3.10;99.90;;;;;;4959097;28;20430;-74
2022/11/29 01:57:12;;;;;;;32.05;18.70;;;3.10;99.90;;;;;;4967620;28;20037;-74
2022/11/29 01:59:43;;;;;;;25.13;15.15;;;3.10;99.90;;;;;;4973234;28;20488;-74
2022/11/29 02:02:16;;;;;;;31.10;19.70;;;3.20;99.90;;;;;;4988028;28;20035;-76
2022/11/29 02:04:45;;;;;;;33.70;20.85;;;3.20;99.90;;;;;;4965607;28;20063;-74
2022/11/29 02:07:11;;;;;;;26.58;16.23;;;3.30;99.90;;;;;;4959425;28;20039;-74
2022/11/29 02:09:37;;;;;;;27.88;16.92;;;3.20;99.90;;;;;;4959176;28;20039;-74
2022/11/29 02:12:06;;;;;;;27.73;14.77;;;3.20;99.90;;;;;;4958446;28;20027;-75
2022/11/29 02:14:46;;;;;;;29.95;16.92;;;3.20;99.90;;;;;;4964304;28;20516;-75
2022/11/29 02:17:28;;;;;;;31.40;16.63;;;3.10;99.90;;;;;;4966019;28;20048;-74
2022/11/29 02:20:22;;;;;;;23.85;14.60;;;3.20;99.90;;;;;;4972585;28;20109;-74
2022/11/29 02:22:53;;;;;;;25.70;14.40;;;3.00;99.90;;;;;;4971399;28;20030;-74
2022/11/29 02:25:22;;;;;;;25.38;15.27;;;3.00;99.90;;;;;;4972260;28;20050;-74
2022/11/29 02:28:06;;;;;;;23.65;14.07;;;2.90;99.90;;;;;;4972720;28;20066;-74
2022/11/29 02:30:37;;;;;;;26.48;14.00;;;3.00;99.90;;;;;;4972928;28;20702;-74
2022/11/29 02:33:28;;;;;;;22.90;12.75;;;2.90;99.90;;;;;;4972312;23;20512;-75
2022/11/29 02:36:31;;;;;;;23.20;13.02;;;2.90;99.90;;;;;;4953103;28;20042;-74
2022/11/29 02:39:30;;;;;;;26.90;14.97;;;2.90;99.90;;;;;;4970927;28;20495;-73
2022/11/29 02:41:56;;;;;;;24.60;13.30;;;2.90;99.90;;;;;;4969145;28;20027;-75
2022/11/29 02:44:43;;;;;;;26.80;14.40;;;2.80;99.90;;;;;;4965085;28;20077;-76
2022/11/29 02:47:21;;;;;;;24.10;14.13;;;2.80;99.90;;;;;;4958746;28;20569;-74
2022/11/29 02:50:12;;;;;;;24.55;13.80;;;2.80;99.90;;;;;;4953228;28;20583;-74
2022/11/29 02:53:10;;;;;;;26.17;14.40;;;2.80;99.90;;;;;;4958965;28;20058;-74
2022/11/29 02:55:50;;;;;;;25.92;14.95;;;2.80;99.90;;;;;;4962359;28;20039;-74
2022/11/29 02:58:44;;;;;;;27.25;16.08;;;2.80;99.90;;;;;;4961770;28;20374;-74
2022/11/29 03:01:22;;;;;;;28.92;15.55;;;2.70;99.90;;;;;;4954445;28;20501;-74
2022/11/29 03:04:00;;;;;;;26.65;14.90;;;2.70;99.90;;;;;;4956826;28;20035;-74
2022/11/29 03:06:28;;;;;;;31.13;17.88;;;2.60;99.90;;;;;;4964516;28;20482;-74
2022/11/29 03:09:03;;;;;;;35.20;20.23;;;2.60;99.90;;;;;;4953477;28;20161;-73
2022/11/29 03:11:33;;;;;;;30.83;17.40;;;2.60;99.90;;;;;;4959503;28;20082;-74
2022/11/29 03:14:12;;;;;;;24.08;14.70;;;2.50;99.90;;;;;;4959043;28;20046;-73
2022/11/29 03:17:09;;;;;;;27.02;15.30;;;2.50;99.90;;;;;;4964285;28;20547;-74
2022/11/29 03:19:50;;;;;;;32.45;17.73;;;2.60;99.90;;;;;;4966257;28;20015;-75
2022/11/29 03:22:41;;;;;;;31.02;16.30;;;2.50;99.90;;;;;;4960088;28;20042;-74
2022/11/29 03:25:26;;;;;;;25.90;15.48;;;2.40;99.90;;;;;;4952406;28;20087;-74
2022/11/29 03:28:00;;;;;;;26.55;16.60;;;2.40;99.90;;;;;;4955152;28;20062;-75
2022/11/29 03:30:28;;;;;;;26.15;15.30;;;2.30;99.90;;;;;;4963891;28;20126;-73
2022/11/29 03:32:59;;;;;;;27.63;16.25;;;2.30;99.90;;;;;;4956074;28;20066;-75
2022/11/29 03:35:36;;;;;;;26.05;14.82;;;2.20;99.90;;;;;;4950137;29;20031;-75
2022/11/29 03:38:26;;;;;;;29.33;17.63;;;2.20;99.90;;;;;;4952171;28;20057;-76
2022/11/29 03:41:06;;;;;;;30.80;16.83;;;2.20;99.90;;;;;;4952310;28;20023;-75
2022/11/29 03:43:40;;;;;;;35.65;19.75;;;2.20;99.90;;;;;;4952101;28;20188;-76
2022/11/29 03:46:34;;;;;;;35.72;21.73;;;2.20;99.90;;;;;;4952188;28;20043;-76
2022/11/29 03:49:06;;;;;;;;;;;2.20;99.90;;;;;;4952460;28;20063;-73
2022/11/29 03:51:50;;;;;;;35.67;19.27;;;2.20;99.90;;;;;;4967226;28;19921;-74
2022/11/29 03:54:34;;;;;;;27.77;16.40;;;2.20;99.90;;;;;;4952343;29;20026;-73
2022/11/29 03:57:00;;;;;;;30.20;16.25;;;2.20;99.90;;;;;;4952474;28;20055;-76
2022/11/29 03:59:43;;;;;;;30.50;16.90;;;2.20;99.90;;;;;;4952463;28;20512;-74
2022/11/29 04:02:34;;;;;;;30.90;17.45;;;2.20;99.90;;;;;;4951999;29;20035;-74
2022/11/29 04:05:03;;;;;;;30.23;16.63;;;2.10;99.90;;;;;;4952042;28;20047;-76
2022/11/29 04:07:54;;;;;;;30.42;17.52;;;2.10;99.90;;;;;;4952068;29;20027;-75
2022/11/29 04:10:46;;;;;;;28.00;16.00;;;2.10;99.90;;;;;;4951976;29;20431;-73
2022/11/29 04:13:56;;;;;;;29.15;16.88;;;2.10;99.90;;;;;;4951839;28;20221;-73
2022/11/29 04:16:46;;;;;;;29.45;16.08;;;2.10;99.90;;;;;;4930551;29;20090;-74
2022/11/29 04:19:36;;;;;;;28.83;17.60;;;2.10;99.90;;;;;;4930537;29;20032;-73
2022/11/29 04:22:27;;;;;;;26.35;16.88;;;2.10;99.90;;;;;;4934159;29;20075;-73
2022/11/29 04:25:35;;;;;;;28.35;16.92;;;2.10;99.90;;;;;;4934030;29;20514;-74
2022/11/29 04:28:33;;;;;;;29.77;16.23;;;2.20;99.90;;;;;;4933852;29;20063;-76
2022/11/29 04:31:14;;;;;;;35.08;18.85;;;2.10;99.90;;;;;;4934110;29;20119;-75
2022/11/29 04:33:52;;;;;;;56.67;31.85;;;2.10;99.90;;;;;;4933488;29;20587;-74
2022/11/29 04:36:41;;;;;;;37.83;21.77;;;2.10;99.90;;;;;;4934229;29;20031;-73
2022/11/29 04:40:02;;;;;;;35.75;20.10;;;2.10;99.90;;;;;;4934190;29;20036;-73
2022/11/29 04:42:40;;;;;;;28.08;15.20;;;2.10;99.90;;;;;;4883763;29;20059;-75
2022/11/29 04:45:36;;;;;;;31.55;20.33;;;2.10;99.90;;;;;;4877171;29;20483;-75
2022/11/29 04:48:13;;;;;;;27.52;17.17;;;2.10;99.90;;;;;;4856421;29;20561;-74
2022/11/29 04:50:55;;;;;;;30.35;17.25;;;2.10;99.90;;;;;;4858394;29;20552;-73
2022/11/29 04:53:59;;;;;;;28.17;16.38;;;2.10;99.90;;;;;;4858010;29;20117;-73
2022/11/29 04:56:49;;;;;;;31.98;17.40;;;2.10;99.90;;;;;;4854832;29;20041;-73
2022/11/29 04:59:45;;;;;;;26.00;15.25;;;2.10;99.90;;;;;;4858516;29;20069;-73
2022/11/29 05:02:33;;;;;;;28.08;17.05;;;2.10;99.90;;;;;;4858364;29;20284;-75
2022/11/29 05:05:26;;;;;;;32.88;16.45;;;2.20;99.90;;;;;;4857739;29;20400;-74
2022/11/29 05:07:58;;;;;;;27.77;17.30;;;2.20;99.90;;;;;;4855506;29;20108;-75
2022/11/29 05:10:42;;;;;;;26.97;16.03;;;2.20;99.90;;;;;;4857651;29;20038;-73
2022/11/29 05:13:22;;;;;;;35.33;18.67;;;2.20;99.90;;;;;;4889442;29;20283;-75
2022/11/29 05:16:20;;;;;;;32.10;17.98;;;2.30;99.90;;;;;;4914298;29;20641;-74
2022/11/29 05:19:27;;;;;;;28.20;16.30;;;2.20;99.90;;;;;;4840000;29;20422;-74
2022/11/29 05:22:05;;;;;;;35.08;18.67;;;2.20;99.90;;;;;;4836906;29;20393;-75
2022/11/29 05:24:55;;;;;;;32.35;18.17;;;2.30;99.90;;;;;;4846090;29;20140;-74
2022/11/29 05:27:37;;;;;;;28.15;17.85;;;2.30;99.90;;;;;;4876585;29;20045;-74
2022/11/29 05:30:19;;;;;;;28.98;17.75;;;2.30;99.90;;;;;;4864003;29;20045;-74
2022/11/29 05:33:27;;;;;;;31.50;17.85;;;2.30;99.90;;;;;;4875674;29;20088;-74
2022/11/29 05:35:59;;;;;;;41.55;23.38;;;2.30;99.90;;;;;;4857948;29;20037;-73
2022/11/29 05:39:07;;;;;;;32.13;19.02;;;2.30;99.90;;;;;;4857862;29;20827;-74
2022/11/29 05:42:01;;;;;;;27.77;17.15;;;2.30;99.90;;;;;;4857918;29;20044;-73
2022/11/29 05:44:36;;;;;;;28.30;16.65;;;2.40;99.90;;;;;;4857847;29;20521;-74
2022/11/29 05:47:04;;;;;;;30.73;16.88;;;2.40;99.90;;;;;;4860131;29;20514;-73
2022/11/29 05:49:40;;;;;;;35.58;20.77;;;2.40;99.90;;;;;;4857643;29;20058;-73
2022/11/29 05:52:24;;;;;;;31.50;18.85;;;2.40;99.90;;;;;;4857607;29;20102;-73
2022/11/29 05:55:26;;;;;;;35.78;20.80;;;2.40;99.90;;;;;;4860800;29;20136;-73
2022/11/29 05:57:55;;;;;;;29.35;17.20;;;2.40;99.90;;;;;;4876143;29;20168;-73
2022/11/29 06:00:21;;;;;;;38.70;21.50;;;2.50;99.90;;;;;;4875859;29;20068;-74
2022/11/29 06:02:58;;;;;;;44.40;25.85;;;2.40;99.90;;;;;;4875669;29;20036;-73
2022/11/29 06:05:45;;;;;;;32.13;16.75;;;2.50;99.90;;;;;;4875608;29;20084;-73
2022/11/29 06:08:29;;;;;;;27.38;14.93;;;2.50;99.90;;;;;;4871288;29;20044;-74
2022/11/29 06:11:17;;;;;;;31.00;18.20;;;2.40;99.90;;;;;;4875648;29;20036;-73
2022/11/29 06:14:07;;;;;;;44.53;24.45;;;2.40;99.90;;;;;;4940194;29;20031;-72
2022/11/29 06:16:55;;;;;;;31.48;18.85;;;2.40;99.90;;;;;;4953379;28;20019;-73
2022/11/29 06:19:43;;;;;;;37.72;20.70;;;2.40;99.90;;;;;;4951991;29;20031;-73
2022/11/29 06:22:20;;;;;;;38.28;20.60;;;2.40;99.90;;;;;;4953360;29;20078;-72
2022/11/29 06:25:33;;;;;;;42.28;25.52;;;2.40;99.90;;;;;;4952015;28;20035;-73
2022/11/29 06:28:48;;;;;;;34.53;21.13;;;2.40;99.90;;;;;;4903485;29;20095;-74
2022/11/29 06:31:36;;;;;;;33.72;18.67;;;2.40;99.90;;;;;;4897200;29;20315;-72
2022/11/29 06:34:18;;;;;;;36.53;21.88;;;2.50;99.90;;;;;;4912427;29;20129;-72
2022/11/29 06:36:45;;;;;;;54.13;32.50;;;2.60;99.90;;;;;;4895052;29;20044;-74
2022/11/29 06:39:11;;;;;;;54.47;32.13;;;2.60;99.90;;;;;;4912608;29;20510;-71
2022/11/29 06:41:37;;;;;;;49.80;27.40;;;2.50;99.90;;;;;;4912677;29;20028;-72
2022/11/29 06:44:03;;;;;;;37.70;23.85;;;2.60;99.90;;;;;;4911345;29;20384;-71
2022/11/29 06:46:41;;;;;;;40.83;25.90;;;2.70;99.90;;;;;;4912354;29;20052;-71
2022/11/29 06:49:10;;;;;;;41.55;26.08;;;2.60;99.90;;;;;;4912215;29;20066;-71
2022/11/29 06:52:10;;;;;;;39.70;24.60;;;2.60;99.90;;;;;;4912538;29;20119;-71
2022/11/29 06:55:04;;;;;;;43.85;27.63;;;2.60;99.90;;;;;;4901348;29;20454;-71
2022/11/29 06:57:42;;;;;;;34.33;21.40;;;2.60;99.90;;;;;;4917414;29;20123;-73
2022/11/29 07:00:16;;;;;;;36.13;21.17;;;2.60;99.90;;;;;;4918711;29;20482;-73
2022/11/29 07:02:51;;;;;;;30.40;17.35;;;2.70;99.90;;;;;;4912591;29;20051;-72
2022/11/29 07:05:17;;;;;;;33.50;18.40;;;2.70;99.90;;;;;;4951742;29;20074;-73
2022/11/29 07:07:43;;;;;;;29.55;16.98;;;2.70;99.90;;;;;;4952403;28;20027;-72
2022/11/29 07:10:15;;;;;;;34.92;19.70;;;2.80;99.90;;;;;;4952036;29;20046;-72
2022/11/29 07:12:42;;;;;;;28.70;16.65;;;2.90;99.90;;;;;;4951915;28;20019;-72
2022/11/29 07:15:20;;;;;;;38.08;20.00;;;2.80;99.90;;;;;;4950402;28;20031;-72
2022/11/29 07:18:21;;;;;;;29.92;18.98;;;2.90;99.90;;;;;;4949761;29;20110;-73
2022/11/29 07:21:14;;;;;;;35.03;19.75;;;2.90;99.90;;;;;;4949915;29;20054;-73
2022/11/29 07:23:46;;;;;;;39.08;25.45;;;3.10;99.90;;;;;;4951916;29;20054;-71
2022/11/29 07:26:27;;;;;;;44.78;29.60;;;3.10;99.90;;;;;;4950708;29;20608;-72
2022/11/29 07:29:40;;;;;;;30.55;17.83;;;3.20;99.90;;;;;;4949056;29;20051;-71
2022/11/29 07:32:33;;;;;;;28.67;16.83;;;3.30;99.90;;;;;;4942924;29;20781;-73
2022/11/29 07:35:06;;;;;;;32.40;18.63;;;3.50;99.90;;;;;;4946647;29;20049;-71
2022/11/29 07:37:47;;;;;;;27.08;16.52;;;3.50;99.90;;;;;;4945065;29;20512;-72
2022/11/29 07:40:14;;;;;;;29.67;17.17;;;3.50;99.90;;;;;;4947089;29;20553;-72
2022/11/29 07:42:59;;;;;;;31.42;17.85;;;3.60;99.90;;;;;;4949456;29;20075;-72
2022/11/29 07:45:30;;;;;;;28.13;15.20;;;3.60;99.90;;;;;;4936920;29;20485;-72
2022/11/29 07:47:57;;;;;;;31.55;19.13;;;3.80;99.90;;;;;;4932545;29;20047;-73
2022/11/29 07:50:25;;;;;;;32.63;20.25;;;3.80;99.90;;;;;;4932407;28;20031;-74
2022/11/29 07:52:50;;;;;;;29.02;16.00;;;3.90;99.90;;;;;;4946163;29;20123;-72
2022/11/29 07:55:20;;;;;;;32.30;18.05;;;4.00;99.90;;;;;;4931299;28;20548;-72
2022/11/29 07:57:46;;;;;;;27.35;16.27;;;4.10;99.90;;;;;;4933882;29;20028;-73
2022/11/29 08:00:13;;;;;;;27.30;17.35;;;4.20;99.90;;;;;;4934208;29;20042;-73
2022/11/29 08:02:39;;;;;;;32.63;20.38;;;4.10;99.90;;;;;;4952047;29;20047;-73
2022/11/29 08:05:06;;;;;;;35.08;19.67;;;4.30;99.90;;;;;;4954296;28;20332;-73
2022/11/29 08:07:36;;;;;;;32.60;19.45;;;4.30;99.90;;;;;;4954636;28;20034;-76
2022/11/29 08:10:04;;;;;;;31.83;19.13;;;4.30;99.90;;;;;;4954297;28;20034;-73
2022/11/29 08:12:30;;;;;;;26.08;16.77;;;4.30;99.90;;;;;;4954189;28;20019;-74
2022/11/29 08:14:56;;;;;;;27.73;17.15;;;4.50;99.90;;;;;;4953287;29;20038;-73
2022/11/29 08:17:23;;;;;;;28.50;16.73;;;4.60;99.90;;;;;;4953649;28;20031;-72
2022/11/29 08:19:49;;;;;;;24.90;13.52;;;4.60;99.90;;;;;;4952329;29;20039;-72
2022/11/29 08:22:15;;;;;;;25.83;16.45;;;4.70;99.90;;;;;;4954802;29;20437;-74
2022/11/29 08:24:41;;;;;;;25.83;14.93;;;4.80;99.90;;;;;;4955161;29;20015;-73
2022/11/29 08:27:06;;;;;;;25.63;14.70;;;4.80;99.90;;;;;;4955192;28;20386;-75
2022/11/29 08:29:32;;;;;;;29.23;17.23;;;4.90;99.90;;;;;;4954394;29;20065;-74
2022/11/29 08:31:58;;;;;;;26.08;15.82;;;5.00;99.90;;;;;;4954020;28;20067;-73
2022/11/29 08:34:24;;;;;;;28.52;16.20;;;5.10;99.90;;;;;;4954304;29;20055;-73
2022/11/29 08:36:53;;;;;;;23.58;14.27;;;5.10;99.90;;;;;;4955063;28;20019;-73
2022/11/29 08:39:19;;;;;;;23.02;12.60;;;5.10;99.90;;;;;;4952301;29;20043;-74
2022/11/29 08:41:45;;;;;;;22.77;12.77;;;5.30;99.90;;;;;;4955018;28;20474;-73
2022/11/29 08:44:10;;;;;;;19.63;11.18;;;5.30;99.90;;;;;;4953588;29;20426;-73
2022/11/29 08:49:21;;;;;;;20.63;11.85;;;5.40;99.90;;;;;;4954710;29;20031;-74
2022/11/29 08:51:47;;;;;;;20.13;11.93;;;5.50;99.90;;;;;;4969825;28;20122;-74
2022/11/29 08:54:12;;;;;;;24.63;13.65;;;5.50;99.90;;;;;;4955045;29;20375;-73
2022/11/29 08:56:38;;;;;;;21.25;11.60;;;5.50;99.90;;;;;;4955206;29;20110;-73
2022/11/29 08:59:04;;;;;;;21.80;11.82;;;5.70;99.90;;;;;;4954523;29;20465;-73
2022/11/29 09:01:30;;;;;;;25.10;12.93;;;5.80;99.90;;;;;;4955100;28;20042;-74
2022/11/29 09:03:58;;;;;;;21.98;11.35;;;5.90;99.90;;;;;;4954454;29;20032;-74
2022/11/29 09:06:26;;;;;;;20.48;11.38;;;5.90;99.90;;;;;;4940359;28;20382;-76
2022/11/29 09:08:55;;;;;;;21.48;10.95;;;6.00;99.90;;;;;;4954545;28;20086;-74
2022/11/29 09:11:22;;;;;;;20.05;10.65;;;5.90;99.90;;;;;;4954839;28;20034;-74
2022/11/29 09:13:50;;;;;;;19.35;10.63;;;6.10;99.90;;;;;;4952785;28;20066;-74
2022/11/29 09:16:19;;;;;;;23.42;11.93;;;6.10;99.90;;;;;;4940992;28;20034;-73
2022/11/29 09:18:47;;;;;;;20.27;11.35;;;6.10;99.90;;;;;;4954465;28;20023;-73
2022/11/29 09:21:14;;;;;;;24.75;10.90;;;6.20;99.90;;;;;;4954298;28;20067;-74
2022/11/29 09:23:41;;;;;;;21.90;11.13;;;6.20;99.90;;;;;;4953498;28;20027;-73
2022/11/29 09:26:09;;;;;;;21.38;11.82;;;6.20;99.90;;;;;;4954055;28;20035;-73
2022/11/29 09:28:35;;;;;;;21.42;12.32;;;6.20;99.90;;;;;;4954155;28;20070;-72
2022/11/29 09:31:06;;;;;;;23.38;12.35;;;6.20;99.90;;;;;;4953478;29;20356;-72
2022/11/29 09:33:33;;;;;;;21.60;12.10;;;6.20;99.90;;;;;;4953615;28;20051;-72
2022/11/29 09:35:59;;;;;;;22.15;12.07;;;6.30;99.90;;;;;;4954867;29;20039;-73
2022/11/29 09:38:25;;;;;;;27.42;12.35;;;6.50;99.90;;;;;;4953386;28;20114;-74
2022/11/29 09:40:58;;;;;;;19.50;10.75;;;6.60;99.90;;;;;;4953564;28;20074;-74
2022/11/29 09:43:26;;;;;;;18.77;9.75;;;6.60;99.90;;;;;;4953052;28;20120;-73
2022/11/29 09:46:14;;;;;;;19.77;11.52;;;6.60;99.90;;;;;;4942377;29;20043;-72
2022/11/29 09:49:05;;;;;;;23.27;12.43;;;6.50;99.90;;;;;;4953713;28;20031;-72
2022/11/29 09:51:34;;;;;;;19.42;10.77;;;6.60;99.90;;;;;;4935898;29;20117;-75
2022/11/29 09:54:00;;;;;;;21.65;11.68;;;6.60;99.90;;;;;;4953544;28;20023;-73
2022/11/29 09:56:42;;;;;;;24.38;13.27;;;6.70;99.90;;;;;;4953495;28;20020;-73
2022/11/29 09:59:14;;;;;;;19.15;11.20;;;6.90;99.90;;;;;;4953568;28;20035;-73
2022/11/29 10:01:52;;;;;;;18.20;11.23;;;7.00;99.90;;;;;;4953240;28;20445;-72
2022/11/29 10:04:22;;;;;;;18.52;10.68;;;6.90;99.90;;;;;;4953018;28;20027;-75
2022/11/29 10:07:05;;;;;;;23.88;13.20;;;7.00;99.90;;;;;;4953176;29;20035;-72
2022/11/29 10:09:44;;;;;;;23.27;11.07;;;7.10;99.90;;;;;;4951256;29;20039;-74
2022/11/29 10:12:39;;;;;;;22.52;9.48;;;7.20;99.90;;;;;;4950347;28;20090;-76
2022/11/29 10:15:29;;;;;;;18.25;9.23;;;7.30;99.90;;;;;;4909228;29;20047;-74
2022/11/29 10:18:15;;;;;;;20.73;10.60;;;7.30;99.90;;;;;;4906645;29;20024;-73
2022/11/29 10:20:43;;;;;;;23.33;13.10;;;7.30;99.90;;;;;;4911087;29;20040;-74
2022/11/29 10:23:12;;;;;;;30.15;18.80;;;7.50;99.90;;;;;;4912200;29;20036;-74
2022/11/29 10:25:49;;;;;;;15.55;9.02;;;7.60;99.90;;;;;;4917412;29;20075;-72
2022/11/29 10:28:19;;;;;;;19.83;10.70;;;7.50;99.90;;;;;;4909680;29;20028;-73
2022/11/29 10:30:46;;;;;;;19.33;10.43;;;7.70;99.90;;;;;;4914508;29;20109;-75
2022/11/29 10:33:28;;;;;;;16.27;8.63;;;7.70;99.90;;;;;;4912275;29;20447;-75
2022/11/29 10:36:15;;;;;;;18.60;9.35;;;7.80;99.90;;;;;;4915657;29;20039;-74
2022/11/29 10:38:43;;;;;;;17.92;8.95;;;8.00;99.90;;;;;;4912289;28;20523;-74
2022/11/29 10:41:15;;;;;;;15.95;9.57;;;7.90;99.90;;;;;;4913714;29;20175;-74
2022/11/29 10:43:42;;;;;;;15.43;8.80;;;8.00;99.90;;;;;;4908860;29;20024;-75
2022/11/29 10:46:20;;;;;;;15.43;8.55;;;7.80;99.90;;;;;;4907035;29;20049;-74
2022/11/29 10:48:46;;;;;;;16.15;9.50;;;7.70;99.90;;;;;;4913230;29;20044;-74
2022/11/29 10:51:16;;;;;;;19.35;11.35;;;7.70;99.90;;;;;;4903275;29;20039;-75
2022/11/29 10:53:45;;;;;;;14.40;8.52;;;7.90;99.90;;;;;;4950008;29;20038;-75
2022/11/29 10:56:28;;;;;;;16.63;8.93;;;7.80;99.90;;;;;;4951691;28;20035;-73
2022/11/29 10:59:04;;;;;;;14.30;8.20;;;7.70;99.90;;;;;;4949748;29;20054;-74
2022/11/29 11:01:40;;;;;;;18.55;10.02;;;7.60;99.90;;;;;;4951765;28;20486;-74
2022/11/29 11:04:13;;;;;;;19.70;8.52;;;7.50;99.90;;;;;;4951133;28;20041;-74
2022/11/29 11:06:55;;;;;;;16.98;8.80;;;7.50;99.90;;;;;;4951090;29;20116;-73
2022/11/29 11:09:35;;;;;;;20.98;10.40;;;7.40;99.90;;;;;;4951868;28;20038;-74
2022/11/29 11:12:15;;;;;;;21.52;11.18;;;7.30;99.90;;;;;;4950875;29;20035;-74
2022/11/29 11:14:42;;;;;;;18.65;11.38;;;7.30;99.90;;;;;;4948329;29;20035;-73
2022/11/29 11:17:31;;;;;;;14.85;8.73;;;7.30;99.90;;;;;;4952298;28;20086;-73
2022/11/29 11:20:20;;;;;;;22.63;11.25;;;7.30;99.90;;;;;;4951464;28;20386;-76
2022/11/29 11:23:01;;;;;;;18.58;9.30;;;7.40;99.90;;;;;;4950910;29;20490;-74
2022/11/29 11:25:33;;;;;;;17.38;10.45;;;7.40;99.90;;;;;;4950703;29;20030;-73
2022/11/29 11:28:33;;;;;;;14.73;7.33;;;7.40;99.90;;;;;;4951678;29;20590;-74
2022/11/29 11:31:04;;;;;;;14.73;7.65;;;7.30;99.90;;;;;;4948069;28;21127;-73
2022/11/29 11:33:34;;;;;;;21.88;12.32;;;7.30;99.90;;;;;;4950810;29;20588;-74
2022/11/29 11:36:12;;;;;;;14.27;8.68;;;7.40;99.90;;;;;;4949845;28;20038;-74
2022/11/29 11:38:47;;;;;;;20.55;11.18;;;7.40;99.90;;;;;;4948695;29;20073;-74
2022/11/29 11:41:21;;;;;;;23.63;11.27;;;7.50;99.90;;;;;;4952136;28;20027;-75
2022/11/29 11:43:56;;;;;;;21.17;12.27;;;7.60;99.90;;;;;;4952114;29;20078;-74
2022/11/29 11:46:22;;;;;;;21.48;11.48;;;7.50;99.90;;;;;;4951617;28;20126;-73
2022/11/29 11:48:50;;;;;;;19.02;9.95;;;7.50;99.90;;;;;;4951438;28;20055;-73
2022/11/29 11:51:24;;;;;;;31.52;20.27;;;7.50;99.90;;;;;;4950670;29;20029;-74
2022/11/29 11:53:55;;;;;;;32.17;20.48;;;7.50;99.90;;;;;;4951584;28;20039;-75
2022/11/29 11:56:22;;;;;;;35.33;20.65;;;7.50;99.90;;;;;;4950954;29;20023;-74
2022/11/29 11:58:56;;;;;;;27.60;15.18;;;7.50;99.90;;;;;;4947883;28;20027;-74
2022/11/29 12:01:29;;;;;;;26.75;14.65;;;7.50;99.90;;;;;;4947657;29;20031;-72
2022/11/29 12:04:34;;;;;;;32.90;17.95;;;7.60;99.90;;;;;;4949164;29;20027;-72
2022/11/29 12:07:16;;;;;;;29.80;17.83;;;7.60;99.90;;;;;;4890655;29;20064;-73
2022/11/29 12:09:51;;;;;;;32.03;20.20;;;7.60;99.90;;;;;;4889913;29;20419;-74
2022/11/29 12:12:20;;;;;;;28.40;17.48;;;7.60;99.90;;;;;;4891265;29;20032;-73
2022/11/29 12:14:54;;;;;;;17.73;8.85;;;7.60;99.90;;;;;;4891696;29;20107;-72
2022/11/29 12:17:35;;;;;;;18.20;9.75;;;7.50;99.90;;;;;;4891351;29;20044;-73
2022/11/29 12:20:19;;;;;;;16.38;7.88;;;7.60;99.90;;;;;;4890643;29;20036;-74
2022/11/29 12:23:12;;;;;;;12.80;5.85;;;7.50;99.90;;;;;;4887697;29;20052;-72
2022/11/29 12:25:59;;;;;;;17.15;7.82;;;7.40;99.90;;;;;;4886356;29;20067;-74
2022/11/29 12:28:32;;;;;;;13.90;7.85;;;7.50;99.90;;;;;;4889602;29;20037;-72
2022/11/29 12:31:23;;;;;;;18.73;9.45;;;7.50;99.90;;;;;;4889645;29;20041;-73
2022/11/29 12:34:19;;;;;;;17.55;9.23;;;7.50;99.90;;;;;;4889256;29;20045;-72
2022/11/29 12:36:58;;;;;;;15.38;8.48;;;7.50;99.90;;;;;;4890284;29;20044;-73
2022/11/29 12:39:42;;;;;;;14.18;7.60;;;7.50;99.90;;;;;;4889056;29;20044;-73
2022/11/29 12:42:23;;;;;;;13.48;7.05;;;7.50;99.90;;;;;;4910417;29;20039;-75
2022/11/29 12:45:18;;;;;;;13.23;7.05;;;7.50;99.90;;;;;;4952959;29;20035;-73
2022/11/29 12:47:59;;;;;;;19.35;7.70;;;7.50;99.90;;;;;;4964060;28;20046;-72
2022/11/29 12:50:56;;;;;;;13.68;7.18;;;7.50;99.90;;;;;;4952311;29;20595;-72
2022/11/29 12:53:37;;;;;;;12.90;6.40;;;7.50;99.90;;;;;;4952542;29;20529;-73
2022/11/29 12:56:26;;;;;;;15.88;8.75;;;7.50;99.90;;;;;;4953353;29;20027;-72
2022/11/29 12:59:34;;;;;;;20.10;10.43;;;7.50;99.90;;;;;;4946477;29;20429;-73
2022/11/29 13:02:22;;;;;;;15.73;8.68;;;7.60;99.90;;;;;;4945839;28;20035;-71
2022/11/29 13:05:02;;;;;;;15.38;7.97;;;7.50;99.90;;;;;;4954875;29;20035;-72
2022/11/29 13:07:46;;;;;;;23.38;12.43;;;7.50;99.90;;;;;;4942022;29;20034;-72
2022/11/29 13:10:18;;;;;;;19.92;10.02;;;7.60;99.90;;;;;;4954289;28;20130;-72
2022/11/29 13:13:01;;;;;;;16.27;7.88;;;7.50;99.90;;;;;;4954091;29;20530;-72
2022/11/29 13:15:55;;;;;;;16.77;7.57;;;7.50;99.90;;;;;;4953948;29;20478;-72
2022/11/29 13:18:39;;;;;;;19.58;9.48;;;7.50;99.90;;;;;;4951347;29;20059;-73
2022/11/29 13:21:20;;;;;;;19.65;10.07;;;7.50;99.90;;;;;;4954342;29;20098;-79
2022/11/29 13:23:55;;;;;;;18.90;10.18;;;7.50;99.90;;;;;;4954202;28;20421;-72
2022/11/29 13:26:25;;;;;;;16.65;8.35;;;7.50;99.90;;;;;;4953376;29;20039;-72
2022/11/29 13:28:51;;;;;;;23.88;11.98;;;7.40;99.90;;;;;;4953691;29;20030;-73
2022/11/29 13:31:23;;;;;;;28.63;18.50;;;7.50;99.90;;;;;;4954114;28;20097;-74